sensor_id;sensor_type;location;lat;lon;timestamp;pressure;altitude;pressure_sealevel;temperature;humidity
53689;BME280;39583;54.682;30.662;2022-12-07T06:23:47;99546.75;;;-6.78;83.24
53689;BME280;39583;54.682;30.662;2022-12-07T06:26:14;99545.59;;;-6.61;82.86
53689;BME280;39583;54.682;30.662;2022-12-07T06:28:40;99551.63;;;-6.48;82.43
53689;BME280;39583;54.682;30.662;2022-12-07T06:31:06;99556.16;;;-6.39;82.00
53689;BME280;39583;54.682;30.662;2022-12-07T06:33:33;99556.34;;;-6.29;81.49
53689;BME280;39583;54.682;30.662;2022-12-07T06:35:59;99546.34;;;-6.35;81.21
53689;BME280;39583;54.682;30.662;2022-12-07T06:38:25;99554.78;;;-6.32;80.86
53689;BME280;39583;54.682;30.662;2022-12-07T06:40:51;99549.44;;;-6.30;80.95
53689;BME280;39583;54.682;30.662;2022-12-07T06:43:17;99537.75;;;-6.37;80.44
53689;BME280;39583;54.682;30.662;2022-12-07T06:45:43;99545.28;;;-6.33;80.26
53689;BME280;39583;54.682;30.662;2022-12-07T06:48:09;99537.28;;;-6.31;80.17
53689;BME280;39583;54.682;30.662;2022-12-07T06:50:35;99543.13;;;-6.28;79.93
53689;BME280;39583;54.682;30.662;2022-12-07T06:53:01;99543.66;;;-6.22;79.81
53689;BME280;39583;54.682;30.662;2022-12-07T06:55:27;99541.53;;;-6.17;79.91
53689;BME280;39583;54.682;30.662;2022-12-07T06:57:53;99541.41;;;-6.16;79.67
53689;BME280;39583;54.682;30.662;2022-12-07T10:25:49;99332.81;;;-5.74;84.15
53689;BME280;39583;54.682;30.662;2022-12-07T10:28:21;99343.16;;;-5.61;83.69
53689;BME280;39583;54.682;30.662;2022-12-07T10:35:58;99334.53;;;-5.18;82.83
53689;BME280;39583;54.682;30.662;2022-12-07T10:38:26;99330.31;;;-5.10;82.36
53689;BME280;39583;54.682;30.662;2022-12-07T10:41:06;99329.25;;;-5.07;82.13
53689;BME280;39583;54.682;30.662;2022-12-07T10:43:33;99323.06;;;-5.06;81.92
53689;BME280;39583;54.682;30.662;2022-12-07T10:48:53;99313.88;;;-5.12;81.75
53689;BME280;39583;54.682;30.662;2022-12-07T10:51:58;99302.41;;;-5.11;81.65
53689;BME280;39583;54.682;30.662;2022-12-07T10:57:17;99264.53;;;-5.29;81.46
53689;BME280;39583;54.682;30.662;2022-12-07T11:13:28;99280.97;;;-4.95;80.63
53689;BME280;39583;54.682;30.662;2022-12-07T11:21:15;99267.09;;;-5.07;80.51
53689;BME280;39583;54.682;30.662;2022-12-07T11:26:41;99282.38;;;-5.12;80.37
53689;BME280;39583;54.682;30.662;2022-12-07T11:34:58;99274.16;;;-5.18;80.19
53689;BME280;39583;54.682;30.662;2022-12-07T11:37:33;99271.28;;;-5.15;80.37
53689;BME280;39583;54.682;30.662;2022-12-07T11:40:26;99271.16;;;-5.14;80.20
53689;BME280;39583;54.682;30.662;2022-12-07T11:43:02;99267.25;;;-5.19;80.17
53689;BME280;39583;54.682;30.662;2022-12-07T11:45:33;99272.63;;;-5.21;80.16
53689;BME280;39583;54.682;30.662;2022-12-07T11:48:02;99267.88;;;-5.27;80.07
53689;BME280;39583;54.682;30.662;2022-12-07T11:53:17;99263.84;;;-5.31;80.49
53689;BME280;39583;54.682;30.662;2022-12-07T11:58:31;99265.75;;;-5.33;80.43
53689;BME280;39583;54.682;30.662;2022-12-07T12:03:58;99253.94;;;-5.39;80.24
53689;BME280;39583;54.682;30.662;2022-12-07T12:06:27;99263.47;;;-5.38;80.52
53689;BME280;39583;54.682;30.662;2022-12-07T12:09:12;99262.28;;;-5.33;80.83
53689;BME280;39583;54.682;30.662;2022-12-07T12:14:52;99255.13;;;-5.31;80.74
53689;BME280;39583;54.682;30.662;2022-12-07T12:17:41;99242.59;;;-5.28;80.79
53689;BME280;39583;54.682;30.662;2022-12-07T12:22:46;99241.41;;;-5.35;80.80
53689;BME280;39583;54.682;30.662;2022-12-07T12:25:27;99249.53;;;-5.38;80.80
53689;BME280;39583;54.682;30.662;2022-12-07T12:27:56;99240.00;;;-5.39;81.13
53689;BME280;39583;54.682;30.662;2022-12-07T12:30:38;99238.09;;;-5.48;81.05
53689;BME280;39583;54.682;30.662;2022-12-07T12:35:41;99216.91;;;-5.56;81.41
53689;BME280;39583;54.682;30.662;2022-12-07T12:38:30;99229.41;;;-5.49;81.01
53689;BME280;39583;54.682;30.662;2022-12-07T12:40:57;99227.03;;;-5.52;81.05
53689;BME280;39583;54.682;30.662;2022-12-07T12:43:43;99222.28;;;-5.58;81.10
53689;BME280;39583;54.682;30.662;2022-12-07T12:54:31;99213.94;;;-5.63;81.34
53689;BME280;39583;54.682;30.662;2022-12-07T13:02:32;99198.22;;;-5.63;81.60
53689;BME280;39583;54.682;30.662;2022-12-07T13:29:18;99198.47;;;-5.66;82.18
53689;BME280;39583;54.682;30.662;2022-12-07T13:31:52;99197.38;;;-5.64;81.96
53689;BME280;39583;54.682;30.662;2022-12-07T13:34:37;99195.59;;;-5.63;82.03
53689;BME280;39583;54.682;30.662;2022-12-07T13:37:28;99192.25;;;-5.65;82.04
53689;BME280;39583;54.682;30.662;2022-12-07T13:40:00;99172.25;;;-5.77;82.12
53689;BME280;39583;54.682;30.662;2022-12-07T13:42:32;99172.50;;;-5.80;82.31
53689;BME280;39583;54.682;30.662;2022-12-07T13:45:00;99195.84;;;-5.66;82.31
53689;BME280;39583;54.682;30.662;2022-12-07T13:47:49;99194.88;;;-5.65;82.35
53689;BME280;39583;54.682;30.662;2022-12-07T13:52:49;99185.59;;;-5.69;82.25
53689;BME280;39583;54.682;30.662;2022-12-07T13:55:16;99191.28;;;-5.64;82.26
53689;BME280;39583;54.682;30.662;2022-12-07T13:57:44;99190.47;;;-5.65;82.09
53689;BME280;39583;54.682;30.662;2022-12-07T14:00:18;99190.34;;;-5.63;82.39
53689;BME280;39583;54.682;30.662;2022-12-07T14:03:04;99184.97;;;-5.61;82.53
53689;BME280;39583;54.682;30.662;2022-12-07T14:05:32;99180.81;;;-5.64;82.20
53689;BME280;39583;54.682;30.662;2022-12-07T14:13:01;99170.81;;;-5.70;82.37
53689;BME280;39583;54.682;30.662;2022-12-07T14:15:31;99167.81;;;-5.66;82.37
53689;BME280;39583;54.682;30.662;2022-12-07T14:17:59;99170.06;;;-5.61;82.46
53689;BME280;39583;54.682;30.662;2022-12-07T14:20:37;99172.69;;;-5.61;82.32
53689;BME280;39583;54.682;30.662;2022-12-07T14:23:05;99162.94;;;-5.59;82.49
53689;BME280;39583;54.682;30.662;2022-12-07T14:25:47;99164.72;;;-5.59;82.38
53689;BME280;39583;54.682;30.662;2022-12-07T14:28:28;99168.03;;;-5.57;82.35
53689;BME280;39583;54.682;30.662;2022-12-07T14:30:55;99168.88;;;-5.57;82.36
53689;BME280;39583;54.682;30.662;2022-12-07T14:33:21;99156.34;;;-5.53;82.07
53689;BME280;39583;54.682;30.662;2022-12-07T14:35:48;99157.03;;;-5.51;82.06
53689;BME280;39583;54.682;30.662;2022-12-07T14:38:15;99155.25;;;-5.51;82.00
53689;BME280;39583;54.682;30.662;2022-12-07T14:40:44;99159.41;;;-5.48;82.04
53689;BME280;39583;54.682;30.662;2022-12-07T14:43:12;99162.28;;;-5.51;81.62
53689;BME280;39583;54.682;30.662;2022-12-07T14:45:40;99161.31;;;-5.50;81.84
53689;BME280;39583;54.682;30.662;2022-12-07T14:48:11;99142.88;;;-5.60;81.60
53689;BME280;39583;54.682;30.662;2022-12-07T14:50:42;99160.13;;;-5.46;81.72
53689;BME280;39583;54.682;30.662;2022-12-07T14:53:15;99160.00;;;-5.45;81.72
53689;BME280;39583;54.682;30.662;2022-12-07T14:55:41;99153.66;;;-5.42;81.68
53689;BME280;39583;54.682;30.662;2022-12-07T14:58:15;99152.00;;;-5.43;81.49
53689;BME280;39583;54.682;30.662;2022-12-07T15:00:42;99155.47;;;-5.43;81.61
53689;BME280;39583;54.682;30.662;2022-12-07T15:03:08;99155.31;;;-5.41;81.50
53689;BME280;39583;54.682;30.662;2022-12-07T15:05:34;99144.84;;;-5.41;81.40
53689;BME280;39583;54.682;30.662;2022-12-07T15:08:01;99132.53;;;-5.41;81.32
53689;BME280;39583;54.682;30.662;2022-12-07T15:10:31;99135.88;;;-5.39;81.42
53689;BME280;39583;54.682;30.662;2022-12-07T15:12:58;99139.19;;;-5.37;81.29
53689;BME280;39583;54.682;30.662;2022-12-07T15:15:43;99130.22;;;-5.34;81.26
53689;BME280;39583;54.682;30.662;2022-12-07T15:18:09;99130.00;;;-5.31;81.12
53689;BME280;39583;54.682;30.662;2022-12-07T15:20:35;99122.69;;;-5.27;81.33
53689;BME280;39583;54.682;30.662;2022-12-07T15:23:02;99121.72;;;-5.26;81.13
53689;BME280;39583;54.682;30.662;2022-12-07T15:25:28;99125.06;;;-5.24;80.91
53689;BME280;39583;54.682;30.662;2022-12-07T15:27:54;99118.72;;;-5.22;80.83
53689;BME280;39583;54.682;30.662;2022-12-07T15:30:21;99124.69;;;-5.20;80.95
53689;BME280;39583;54.682;30.662;2022-12-07T15:32:51;99110.59;;;-5.19;80.92
53689;BME280;39583;54.682;30.662;2022-12-07T15:35:18;99122.91;;;-5.19;80.85
53689;BME280;39583;54.682;30.662;2022-12-07T15:37:44;99111.56;;;-5.20;81.12
53689;BME280;39583;54.682;30.662;2022-12-07T15:40:11;99121.94;;;-5.18;80.63
53689;BME280;39583;54.682;30.662;2022-12-07T15:42:37;99112.41;;;-5.19;80.76
53689;BME280;39583;54.682;30.662;2022-12-07T15:45:05;99111.44;;;-5.18;80.71
53689;BME280;39583;54.682;30.662;2022-12-07T15:47:34;99095.81;;;-5.20;80.69
53689;BME280;39583;54.682;30.662;2022-12-07T15:50:04;99108.81;;;-5.18;80.81
53689;BME280;39583;54.682;30.662;2022-12-07T15:52:31;99100.09;;;-5.19;80.87
53689;BME280;39583;54.682;30.662;2022-12-07T15:54:57;99105.09;;;-5.16;80.77
53689;BME280;39583;54.682;30.662;2022-12-07T15:57:27;99091.84;;;-5.14;80.90
53689;BME280;39583;54.682;30.662;2022-12-07T15:59:53;99078.91;;;-5.27;80.58
53689;BME280;39583;54.682;30.662;2022-12-07T16:02:20;99094.53;;;-5.25;80.79
53689;BME280;39583;54.682;30.662;2022-12-07T16:04:48;99096.13;;;-5.13;80.63
53689;BME280;39583;54.682;30.662;2022-12-07T16:07:16;99090.75;;;-5.12;80.68
53689;BME280;39583;54.682;30.662;2022-12-07T16:09:43;99108.97;;;-5.10;80.88
53689;BME280;39583;54.682;30.662;2022-12-07T16:12:10;99099.19;;;-5.08;80.71
53689;BME280;39583;54.682;30.662;2022-12-07T16:14:37;99100.03;;;-5.08;80.69
53689;BME280;39583;54.682;30.662;2022-12-07T16:17:04;99091.31;;;-5.08;80.56
53689;BME280;39583;54.682;30.662;2022-12-07T16:19:32;99083.97;;;-5.14;80.88
53689;BME280;39583;54.682;30.662;2022-12-07T16:21:58;99081.47;;;-5.16;80.82
53689;BME280;39583;54.682;30.662;2022-12-07T16:24:25;99098.81;;;-5.03;80.74
53689;BME280;39583;54.682;30.662;2022-12-07T16:26:52;99101.31;;;-5.02;80.74
53689;BME280;39583;54.682;30.662;2022-12-07T16:29:20;99089.00;;;-5.01;80.80
53689;BME280;39583;54.682;30.662;2022-12-07T16:31:46;99084.38;;;-5.09;80.51
53689;BME280;39583;54.682;30.662;2022-12-07T16:34:14;99087.47;;;-5.04;80.67
53689;BME280;39583;54.682;30.662;2022-12-07T16:36:40;99091.22;;;-4.97;80.57
53689;BME280;39583;54.682;30.662;2022-12-07T16:39:08;99085.97;;;-4.97;80.84
53689;BME280;39583;54.682;30.662;2022-12-07T16:41:36;99076.06;;;-4.93;80.98
53689;BME280;39583;54.682;30.662;2022-12-07T16:44:05;99077.72;;;-4.92;80.74
53689;BME280;39583;54.682;30.662;2022-12-07T16:46:33;99086.44;;;-4.92;81.02
53689;BME280;39583;54.682;30.662;2022-12-07T16:49:02;99084.38;;;-4.88;81.01
53689;BME280;39583;54.682;30.662;2022-12-07T16:51:30;99058.06;;;-4.98;81.08
53689;BME280;39583;54.682;30.662;2022-12-07T16:53:56;99062.34;;;-4.97;80.94
53689;BME280;39583;54.682;30.662;2022-12-07T16:56:24;99061.16;;;-4.83;81.20
53689;BME280;39583;54.682;30.662;2022-12-07T16:58:54;99068.06;;;-4.82;80.73
53689;BME280;39583;54.682;30.662;2022-12-07T17:01:22;99045.38;;;-4.93;80.80
53689;BME280;39583;54.682;30.662;2022-12-07T17:03:49;99064.09;;;-4.77;81.08
53689;BME280;39583;54.682;30.662;2022-12-07T17:06:27;99067.56;;;-4.76;80.91
53689;BME280;39583;54.682;30.662;2022-12-07T17:08:54;99048.16;;;-4.85;80.95
53689;BME280;39583;54.682;30.662;2022-12-07T17:11:24;99066.47;;;-4.73;81.07
53689;BME280;39583;54.682;30.662;2022-12-07T17:13:51;99068.94;;;-4.72;80.98
53689;BME280;39583;54.682;30.662;2022-12-07T17:16:36;99064.38;;;-4.70;81.00
53689;BME280;39583;54.682;30.662;2022-12-07T17:19:07;99072.03;;;-4.67;80.90
53689;BME280;39583;54.682;30.662;2022-12-07T17:21:35;99057.78;;;-4.64;81.05
53689;BME280;39583;54.682;30.662;2022-12-07T17:24:04;99041.03;;;-4.73;81.13
53689;BME280;39583;54.682;30.662;2022-12-07T17:26:31;99056.81;;;-4.63;80.93
53689;BME280;39583;54.682;30.662;2022-12-07T17:28:58;99056.81;;;-4.63;81.07
53689;BME280;39583;54.682;30.662;2022-12-07T17:31:25;99036.31;;;-4.69;80.80
53689;BME280;39583;54.682;30.662;2022-12-07T17:33:51;99047.69;;;-4.59;81.17
53689;BME280;39583;54.682;30.662;2022-12-07T17:36:21;99052.00;;;-4.58;81.12
53689;BME280;39583;54.682;30.662;2022-12-07T17:38:49;99047.56;;;-4.58;80.77
53689;BME280;39583;54.682;30.662;2022-12-07T17:41:22;99043.84;;;-4.55;80.87
53689;BME280;39583;54.682;30.662;2022-12-07T17:44:09;99029.16;;;-4.58;80.97
53689;BME280;39583;54.682;30.662;2022-12-07T17:46:37;99028.66;;;-4.52;80.84
53689;BME280;39583;54.682;30.662;2022-12-07T17:49:04;99026.84;;;-4.51;80.67
53689;BME280;39583;54.682;30.662;2022-12-07T17:51:32;99040.81;;;-4.51;80.84
53689;BME280;39583;54.682;30.662;2022-12-07T17:54:20;99023.13;;;-4.49;80.68
53689;BME280;39583;54.682;30.662;2022-12-07T17:56:48;99023.25;;;-4.50;80.85
53689;BME280;39583;54.682;30.662;2022-12-07T17:59:14;99026.72;;;-4.50;80.82
53689;BME280;39583;54.682;30.662;2022-12-07T18:01:41;99030.88;;;-4.47;80.61
53689;BME280;39583;54.682;30.662;2022-12-07T18:04:08;99042.19;;;-4.47;80.81
53689;BME280;39583;54.682;30.662;2022-12-07T18:06:35;99049.13;;;-4.46;80.72
53689;BME280;39583;54.682;30.662;2022-12-07T18:09:02;99045.53;;;-4.45;81.00
53689;BME280;39583;54.682;30.662;2022-12-07T18:11:28;99041.09;;;-4.44;80.82
53689;BME280;39583;54.682;30.662;2022-12-07T18:13:55;99055.78;;;-4.41;80.61
53689;BME280;39583;54.682;30.662;2022-12-07T18:16:24;99051.50;;;-4.42;80.72
53689;BME280;39583;54.682;30.662;2022-12-07T18:18:53;99034.03;;;-4.43;80.57
53689;BME280;39583;54.682;30.662;2022-12-07T18:21:23;99034.75;;;-4.51;80.82
53689;BME280;39583;54.682;30.662;2022-12-07T18:23:54;99052.44;;;-4.43;80.71
53689;BME280;39583;54.682;30.662;2022-12-07T18:26:22;99042.75;;;-4.43;80.89
53689;BME280;39583;54.682;30.662;2022-12-07T18:28:50;99044.31;;;-4.40;80.80
53689;BME280;39583;54.682;30.662;2022-12-07T18:31:17;99047.75;;;-4.40;80.68
53689;BME280;39583;54.682;30.662;2022-12-07T18:33:46;99040.84;;;-4.41;80.58
53689;BME280;39583;54.682;30.662;2022-12-07T18:36:15;99047.63;;;-4.38;81.00
53689;BME280;39583;54.682;30.662;2022-12-07T18:38:41;99050.94;;;-4.36;81.11
53689;BME280;39583;54.682;30.662;2022-12-07T18:41:10;99054.41;;;-4.36;80.91
53689;BME280;39583;54.682;30.662;2022-12-07T18:43:37;99051.50;;;-4.33;81.29
53689;BME280;39583;54.682;30.662;2022-12-07T18:46:10;99045.41;;;-4.33;80.77
53689;BME280;39583;54.682;30.662;2022-12-07T18:48:37;99060.22;;;-4.32;81.16
53689;BME280;39583;54.682;30.662;2022-12-07T18:51:05;99061.03;;;-4.32;80.97
53689;BME280;39583;54.682;30.662;2022-12-07T18:53:32;99058.41;;;-4.32;81.12
53689;BME280;39583;54.682;30.662;2022-12-07T18:56:11;99045.28;;;-4.32;80.77
53689;BME280;39583;54.682;30.662;2022-12-07T18:58:38;99035.72;;;-4.33;81.15
53689;BME280;39583;54.682;30.662;2022-12-07T19:01:25;99046.25;;;-4.33;81.22
53689;BME280;39583;54.682;30.662;2022-12-07T19:03:52;99045.28;;;-4.32;80.95
53689;BME280;39583;54.682;30.662;2022-12-07T19:06:18;99042.66;;;-4.32;81.01
53689;BME280;39583;54.682;30.662;2022-12-07T19:08:44;99039.88;;;-4.30;81.28
53689;BME280;39583;54.682;30.662;2022-12-07T19:11:22;99034.50;;;-4.29;81.13
